createdAt,value
2022-10-07T00:00:48.852Z,14.412537
2022-10-07T00:01:58.882Z,14.402466
2022-10-07T00:03:07.841Z,14.402466
2022-10-07T00:04:18.822Z,14.402466
2022-10-07T00:05:26.851Z,14.372253
2022-10-07T00:06:35.885Z,14.372253
2022-10-07T00:07:46.422Z,14.402466
2022-10-07T00:08:53.898Z,14.372253
2022-10-07T00:10:03.935Z,14.402466
2022-10-07T00:11:12.936Z,14.372253
2022-10-07T00:12:20.913Z,14.372253
2022-10-07T00:13:30.949Z,14.402466
2022-10-07T00:14:39.908Z,14.412537
2022-10-07T00:15:48.901Z,14.402466
2022-10-07T00:16:58.919Z,14.402466
2022-10-07T00:18:07.886Z,14.412537
2022-10-07T00:19:17.885Z,14.412537
2022-10-07T00:20:26.882Z,14.402466
2022-10-07T00:21:35.897Z,14.402466
2022-10-07T00:22:45.906Z,14.372253
2022-10-07T00:23:53.892Z,14.402466
2022-10-07T00:25:03.984Z,14.362183
2022-10-07T00:26:14.001Z,14.362183
2022-10-07T00:27:23.025Z,14.352112
2022-10-07T00:28:33.063Z,14.352112
2022-10-07T00:29:41.969Z,14.362183
2022-10-07T00:30:51.053Z,14.33197
2022-10-07T00:32:00.963Z,14.301758
2022-10-07T00:33:08.947Z,14.321899
2022-10-07T00:34:17.905Z,14.321899
2022-10-07T00:35:27.855Z,14.301758
2022-10-07T00:36:36.666Z,14.321899
2022-10-07T00:37:47.032Z,14.33197
2022-10-07T00:38:55.237Z,14.321899
2022-10-07T00:40:04.930Z,14.321899
2022-10-07T00:41:14.604Z,14.301758
2022-10-07T00:42:23.308Z,14.301758
2022-10-07T00:43:33.070Z,14.321899
2022-10-07T00:44:42.764Z,14.321899
2022-10-07T00:45:53.526Z,14.301758
2022-10-07T00:47:03.174Z,14.291687
2022-10-07T00:48:12.032Z,14.291687
2022-10-07T00:49:21.773Z,14.251404
2022-10-07T00:50:31.461Z,14.231262
2022-10-07T00:51:39.144Z,14.231262
2022-10-07T00:52:48.825Z,14.20105
2022-10-07T00:53:57.519Z,14.221191
2022-10-07T00:55:06.195Z,14.180908
2022-10-07T00:56:14.869Z,14.20105
2022-10-07T00:57:22.553Z,14.180908
2022-10-07T00:58:31.216Z,14.180908
2022-10-07T00:59:40.096Z,14.180908
2022-10-07T01:00:48.801Z,14.150696
2022-10-07T01:01:58.466Z,14.150696
2022-10-07T01:03:08.087Z,14.140625
2022-10-07T01:04:16.775Z,14.140625
2022-10-07T01:05:26.627Z,14.150696
2022-10-07T01:06:35.331Z,14.110413
2022-10-07T01:07:44.215Z,14.0802
2022-10-07T01:08:54.690Z,14.049988
2022-10-07T01:10:04.362Z,13.999634
2022-10-07T01:11:14.281Z,13.969421
2022-10-07T01:12:22.756Z,13.929138
2022-10-07T01:13:31.436Z,13.919067
2022-10-07T01:14:41.109Z,13.929138
2022-10-07T01:15:48.800Z,13.929138
2022-10-07T01:16:58.569Z,13.919067
2022-10-07T01:18:08.169Z,13.919067
2022-10-07T01:19:17.845Z,13.919067
2022-10-07T01:20:27.511Z,13.898926
2022-10-07T01:21:37.233Z,13.919067
2022-10-07T01:22:45.906Z,13.888855
2022-10-07T01:23:55.588Z,13.888855
2022-10-07T01:25:03.280Z,13.868713
2022-10-07T01:26:12.002Z,13.858643
2022-10-07T01:27:21.682Z,13.808289
2022-10-07T01:28:30.487Z,13.768005
2022-10-07T01:29:40.103Z,13.747864
2022-10-07T01:30:49.942Z,13.717651
2022-10-07T01:31:57.551Z,13.69751
2022-10-07T01:33:07.225Z,13.667297
2022-10-07T01:34:15.982Z,13.627014
2022-10-07T01:35:24.686Z,13.596802
2022-10-07T01:36:34.357Z,13.536377
2022-10-07T01:37:43.355Z,13.496094
2022-10-07T01:38:52.717Z,13.435669
2022-10-07T01:40:01.433Z,13.385315
2022-10-07T01:41:10.117Z,13.334961
2022-10-07T01:42:19.860Z,13.314819
2022-10-07T01:43:27.527Z,13.274536
2022-10-07T01:44:36.206Z,13.254395
2022-10-07T01:45:45.986Z,13.204041
2022-10-07T01:46:54.629Z,13.204041
2022-10-07T01:48:04.337Z,13.183899
2022-10-07T01:49:13.987Z,13.153687
2022-10-07T01:50:21.666Z,13.123474
2022-10-07T01:51:31.480Z,13.083191
2022-10-07T01:52:39.150Z,13.042908
2022-10-07T01:53:47.867Z,13.012695
2022-10-07T01:54:57.568Z,12.972412
2022-10-07T01:56:09.560Z,12.952271
2022-10-07T01:57:15.897Z,12.901917
2022-10-07T01:58:25.570Z,12.871704
2022-10-07T01:59:33.262Z,12.851562
2022-10-07T02:00:42.995Z,12.801208
2022-10-07T02:01:51.718Z,12.781067
2022-10-07T02:03:00.528Z,12.760925
2022-10-07T02:04:10.307Z,12.730713
2022-10-07T02:05:18.881Z,12.730713
2022-10-07T02:06:28.618Z,12.680359
2022-10-07T02:07:37.289Z,12.7005
2022-10-07T02:08:45.110Z,12.680359
2022-10-07T02:09:54.787Z,12.680359
2022-10-07T02:11:02.472Z,12.650146
2022-10-07T02:12:11.173Z,12.670288
2022-10-07T02:13:20.889Z,12.670288
2022-10-07T02:14:29.602Z,12.670288
2022-10-07T02:15:39.523Z,12.650146
2022-10-07T02:16:49.193Z,12.650146
2022-10-07T02:17:57.867Z,12.619934
2022-10-07T02:19:07.593Z,12.609863
2022-10-07T02:20:15.353Z,12.599792
2022-10-07T02:21:25.051Z,12.599792
2022-10-07T02:22:34.731Z,12.599792
2022-10-07T02:23:42.409Z,12.599792
2022-10-07T02:24:52.182Z,12.56958
2022-10-07T02:26:01.929Z,12.599792
2022-10-07T02:27:10.616Z,12.619934
2022-10-07T02:28:20.387Z,12.640076
2022-10-07T02:29:29.037Z,12.609863
2022-10-07T02:30:37.714Z,12.619934
2022-10-07T02:31:47.415Z,12.609863
2022-10-07T02:32:55.184Z,12.599792
2022-10-07T02:34:04.847Z,12.619934
2022-10-07T02:35:14.523Z,12.619934
2022-10-07T02:36:22.252Z,12.609863
2022-10-07T02:37:31.918Z,12.599792
2022-10-07T02:38:40.606Z,12.609863
2022-10-07T02:39:49.282Z,12.599792
2022-10-07T02:40:58.314Z,12.599792
2022-10-07T02:42:07.035Z,12.599792
2022-10-07T02:43:16.738Z,12.56958
2022-10-07T02:44:25.430Z,12.579651
2022-10-07T02:45:35.096Z,12.599792
2022-10-07T02:46:44.824Z,12.549438
2022-10-07T02:47:53.476Z,12.539368
2022-10-07T02:49:03.227Z,12.539368
2022-10-07T02:50:10.882Z,12.529297
2022-10-07T02:51:21.346Z,12.489014
2022-10-07T02:52:30.266Z,12.44873
2022-10-07T02:53:37.925Z,12.398376
2022-10-07T02:54:47.799Z,12.368164
2022-10-07T02:55:56.598Z,12.348022
2022-10-07T02:57:05.277Z,12.31781
2022-10-07T02:58:14.969Z,12.277527
2022-10-07T02:59:23.636Z,12.267456
2022-10-07T03:00:32.376Z,12.237244
2022-10-07T03:01:41.118Z,12.207031
2022-10-07T03:02:49.743Z,12.19696
2022-10-07T03:03:59.481Z,12.19696
2022-10-07T03:05:08.096Z,12.19696
2022-10-07T03:06:15.924Z,12.166748
2022-10-07T03:07:25.633Z,12.116394
2022-10-07T03:08:33.341Z,12.086182
2022-10-07T03:09:43.020Z,12.055969
2022-10-07T03:10:52.713Z,12.025757
2022-10-07T03:12:02.567Z,12.015686
2022-10-07T03:13:12.248Z,11.94519
2022-10-07T03:14:20.930Z,11.914978
2022-10-07T03:15:29.602Z,11.904907
2022-10-07T03:16:40.292Z,11.874695
2022-10-07T03:17:48.967Z,11.844482
2022-10-07T03:18:57.648Z,11.844482
2022-10-07T03:20:07.324Z,11.804199
2022-10-07T03:21:17.040Z,11.804199
2022-10-07T03:22:26.748Z,11.773987
2022-10-07T03:23:35.476Z,11.723633
2022-10-07T03:24:44.189Z,11.703491
2022-10-07T03:25:53.850Z,11.68335
2022-10-07T03:27:02.556Z,11.653137
2022-10-07T03:28:12.285Z,11.622925
2022-10-07T03:29:21.978Z,11.602783
2022-10-07T03:30:30.683Z,11.572571
2022-10-07T03:31:40.412Z,11.552429
2022-10-07T03:32:50.106Z,11.542358
2022-10-07T03:33:59.875Z,11.512146
2022-10-07T03:35:09.698Z,11.481934
2022-10-07T03:36:17.534Z,11.471863
2022-10-07T03:37:26.212Z,11.471863
2022-10-07T03:38:36.025Z,11.43158
2022-10-07T03:39:43.785Z,11.43158
2022-10-07T03:40:53.486Z,11.371155
2022-10-07T03:42:03.178Z,11.351013
2022-10-07T03:43:10.857Z,11.330872
2022-10-07T03:44:20.535Z,11.330872
2022-10-07T03:45:28.237Z,11.300659
2022-10-07T03:46:36.948Z,11.270447
2022-10-07T03:47:47.016Z,11.250305
2022-10-07T03:48:54.304Z,11.250305
2022-10-07T03:50:04.130Z,11.250305
2022-10-07T03:51:11.839Z,11.270447
2022-10-07T03:52:20.659Z,11.270447
2022-10-07T03:53:30.361Z,11.250305
2022-10-07T03:54:39.067Z,11.260376
2022-10-07T03:55:46.776Z,11.250305
2022-10-07T03:56:56.540Z,11.230164
2022-10-07T03:58:04.376Z,11.260376
2022-10-07T03:59:14.067Z,11.260376
2022-10-07T04:00:23.776Z,11.270447
2022-10-07T04:01:31.630Z,11.250305
2022-10-07T04:02:41.743Z,11.230164
2022-10-07T04:03:50.587Z,11.17981
2022-10-07T04:04:59.252Z,11.169739
2022-10-07T04:06:09.963Z,11.119385
2022-10-07T04:07:18.695Z,11.069031
2022-10-07T04:08:28.344Z,11.018677
2022-10-07T04:09:38.151Z,11.018677
2022-10-07T04:10:45.848Z,10.968323
2022-10-07T04:11:55.518Z,10.958252
2022-10-07T04:13:04.427Z,10.92804
2022-10-07T04:14:14.590Z,10.92804
2022-10-07T04:15:24.370Z,10.897827
2022-10-07T04:16:37.879Z,10.887756
2022-10-07T04:17:44.081Z,10.837402
2022-10-07T04:18:52.666Z,10.817261
2022-10-07T04:20:01.457Z,10.80719
2022-10-07T04:21:11.463Z,10.787048
2022-10-07T04:22:19.221Z,10.756836
2022-10-07T04:23:28.956Z,10.736694
2022-10-07T04:24:38.880Z,10.736694
2022-10-07T04:25:48.149Z,10.68634
2022-10-07T04:26:57.919Z,10.635986
2022-10-07T04:28:06.876Z,10.635986
2022-10-07T04:29:15.315Z,10.625916
2022-10-07T04:30:24.030Z,10.605774
2022-10-07T04:31:33.883Z,10.585632
2022-10-07T04:32:42.615Z,10.565491
2022-10-07T04:33:52.307Z,10.525208
2022-10-07T04:35:00.077Z,10.505066
2022-10-07T04:36:09.995Z,10.464783
2022-10-07T04:37:18.774Z,10.414429
2022-10-07T04:38:28.328Z,10.404358
2022-10-07T04:39:56.382Z,10.4245
2022-10-07T04:40:47.262Z,10.444641
2022-10-07T04:41:55.922Z,10.464783
2022-10-07T04:43:04.784Z,10.464783
2022-10-07T04:44:14.855Z,10.464783
2022-10-07T04:45:24.821Z,10.464783
2022-10-07T04:46:32.757Z,10.484924
2022-10-07T04:47:42.741Z,10.464783
2022-10-07T04:48:51.134Z,10.484924
2022-10-07T04:49:58.912Z,10.464783
2022-10-07T04:51:08.620Z,10.464783
2022-10-07T04:52:16.301Z,10.4245
2022-10-07T04:53:25.006Z,10.444641
2022-10-07T04:54:34.736Z,10.414429
2022-10-07T04:55:42.559Z,10.384216
2022-10-07T04:56:52.249Z,10.354004
2022-10-07T04:58:00.966Z,10.343933
2022-10-07T04:59:09.626Z,10.343933
2022-10-07T05:00:20.424Z,10.414429
2022-10-07T05:01:29.275Z,10.414429
2022-10-07T05:02:39.064Z,10.464783
2022-10-07T05:03:48.762Z,10.464783
2022-10-07T05:04:57.478Z,10.494995
2022-10-07T05:06:07.169Z,10.505066
2022-10-07T05:07:16.893Z,10.585632
2022-10-07T05:08:25.576Z,10.595703
2022-10-07T05:09:35.270Z,10.625916
2022-10-07T05:10:43.934Z,10.68634
2022-10-07T05:11:52.622Z,10.746765
2022-10-07T05:13:02.427Z,10.887756
2022-10-07T05:14:12.105Z,10.867615
2022-10-07T05:15:21.810Z,10.817261
2022-10-07T05:16:31.604Z,10.80719
2022-10-07T05:17:40.224Z,10.817261
2022-10-07T05:18:49.957Z,10.837402
2022-10-07T05:19:59.651Z,10.857544
2022-10-07T05:21:08.354Z,10.867615
2022-10-07T05:22:18.048Z,10.837402
2022-10-07T05:23:28.503Z,10.817261
2022-10-07T05:24:35.507Z,10.80719
2022-10-07T05:25:45.200Z,10.817261
2022-10-07T05:26:53.901Z,10.837402
2022-10-07T05:28:02.669Z,10.80719
2022-10-07T05:29:10.295Z,10.787048
2022-10-07T05:30:20.107Z,10.776978
2022-10-07T05:31:29.850Z,10.787048
2022-10-07T05:32:38.541Z,10.787048
2022-10-07T05:33:48.171Z,10.776978
2022-10-07T05:34:56.835Z,10.787048
2022-10-07T05:36:04.541Z,10.817261
2022-10-07T05:37:14.214Z,10.837402
2022-10-07T05:38:21.883Z,10.837402
2022-10-07T05:39:30.581Z,10.837402
2022-10-07T05:40:39.256Z,10.857544
2022-10-07T05:41:46.957Z,10.867615
2022-10-07T05:42:56.691Z,10.897827
2022-10-07T05:44:05.384Z,10.958252
2022-10-07T05:45:14.075Z,10.998535
2022-10-07T05:46:23.915Z,11.038818
2022-10-07T05:47:31.532Z,11.069031
2022-10-07T05:48:40.230Z,11.048889
2022-10-07T05:49:49.877Z,11.048889
2022-10-07T05:50:59.567Z,11.069031
2022-10-07T05:52:09.263Z,11.109314
2022-10-07T05:53:17.978Z,11.139526
2022-10-07T05:54:26.786Z,11.169739
2022-10-07T05:55:40.060Z,11.18988
2022-10-07T05:56:46.139Z,11.18988
2022-10-07T05:57:54.797Z,11.250305
2022-10-07T05:59:04.484Z,11.250305
2022-10-07T06:00:12.163Z,11.260376
2022-10-07T06:01:21.814Z,11.260376
2022-10-07T06:02:31.665Z,11.260376
2022-10-07T06:03:40.168Z,11.270447
2022-10-07T06:04:49.918Z,11.300659
2022-10-07T06:05:58.569Z,11.320801
2022-10-07T06:07:08.274Z,11.351013
2022-10-07T06:08:18.929Z,11.361084
2022-10-07T06:09:27.600Z,11.361084
2022-10-07T06:10:37.312Z,11.411438
2022-10-07T06:11:46.992Z,11.451721
2022-10-07T06:12:56.711Z,11.471863
2022-10-07T06:14:06.386Z,11.481934
2022-10-07T06:15:14.077Z,11.502075
2022-10-07T06:16:24.030Z,11.512146
2022-10-07T06:17:33.673Z,11.542358
2022-10-07T06:18:42.393Z,11.542358
2022-10-07T06:19:52.066Z,11.552429
2022-10-07T06:21:00.809Z,11.592712
2022-10-07T06:22:10.507Z,11.632996
2022-10-07T06:23:19.181Z,11.663208
2022-10-07T06:24:27.857Z,11.663208
2022-10-07T06:25:35.505Z,11.68335
2022-10-07T06:26:45.216Z,11.69342
2022-10-07T06:27:54.666Z,11.723633
2022-10-07T06:29:02.643Z,11.68335
2022-10-07T06:30:11.312Z,11.68335
2022-10-07T06:31:20.055Z,11.69342
2022-10-07T06:32:29.746Z,11.723633
2022-10-07T06:33:39.626Z,11.703491
2022-10-07T06:34:48.528Z,11.703491
2022-10-07T06:36:02.267Z,11.753845
2022-10-07T06:37:08.354Z,11.784058
2022-10-07T06:38:18.166Z,11.81427
2022-10-07T06:39:27.050Z,11.834412
2022-10-07T06:40:36.936Z,11.804199
2022-10-07T06:41:45.613Z,11.81427
2022-10-07T06:42:53.320Z,11.834412
2022-10-07T06:44:03.022Z,11.904907
2022-10-07T06:45:10.709Z,11.914978
2022-10-07T06:46:19.568Z,11.914978
2022-10-07T06:47:28.167Z,11.884766
2022-10-07T06:48:35.821Z,11.864624
2022-10-07T06:49:45.495Z,11.874695
2022-10-07T06:50:54.251Z,11.904907
2022-10-07T06:52:02.928Z,11.94519
2022-10-07T06:53:12.635Z,12.015686
2022-10-07T06:54:21.300Z,12.035828
2022-10-07T06:55:29.966Z,11.995544
2022-10-07T06:56:39.791Z,11.995544
2022-10-07T06:57:48.492Z,11.965332
2022-10-07T06:58:57.216Z,11.995544
2022-10-07T07:00:05.956Z,12.06604
2022-10-07T07:01:13.657Z,12.146606
2022-10-07T07:02:23.331Z,12.217102
2022-10-07T07:03:31.997Z,12.267456
2022-10-07T07:04:40.756Z,12.348022
2022-10-07T07:05:54.414Z,12.398376
2022-10-07T07:07:00.045Z,12.44873
2022-10-07T07:08:09.896Z,12.458801
2022-10-07T07:09:19.631Z,12.398376
2022-10-07T07:10:29.282Z,12.428589
2022-10-07T07:11:38.955Z,12.468872
2022-10-07T07:12:48.330Z,12.44873
2022-10-07T07:13:57.661Z,12.489014
2022-10-07T07:15:07.530Z,12.428589
2022-10-07T07:16:17.411Z,12.348022
2022-10-07T07:17:27.102Z,12.388306
2022-10-07T07:18:36.955Z,12.44873
2022-10-07T07:19:45.857Z,12.458801
2022-10-07T07:20:55.782Z,12.458801
2022-10-07T07:22:03.869Z,12.398376
2022-10-07T07:23:12.816Z,12.398376
2022-10-07T07:24:22.812Z,12.44873
2022-10-07T07:25:31.704Z,12.499084
2022-10-07T07:26:41.460Z,12.549438
2022-10-07T07:27:53.917Z,12.599792
2022-10-07T07:29:00.053Z,12.599792
2022-10-07T07:30:09.343Z,12.599792
2022-10-07T07:31:17.400Z,12.539368
2022-10-07T07:32:27.088Z,12.489014
2022-10-07T07:33:36.801Z,12.458801
2022-10-07T07:34:44.528Z,12.468872
2022-10-07T07:35:53.174Z,12.529297
2022-10-07T07:37:02.891Z,12.609863
2022-10-07T07:38:10.575Z,12.56958
2022-10-07T07:39:21.244Z,12.599792
2022-10-07T07:40:29.939Z,12.640076
2022-10-07T07:41:38.648Z,12.7005
2022-10-07T07:42:48.347Z,12.670288
2022-10-07T07:43:57.093Z,12.579651
2022-10-07T07:45:06.830Z,12.549438
2022-10-07T07:46:16.526Z,12.549438
2022-10-07T07:47:25.167Z,12.56958
2022-10-07T07:48:34.877Z,12.549438
2022-10-07T07:49:43.589Z,12.599792
2022-10-07T07:50:52.283Z,12.670288
2022-10-07T07:52:01.962Z,12.640076
2022-10-07T07:53:10.869Z,12.680359
2022-10-07T07:54:20.633Z,12.730713
2022-10-07T07:55:29.329Z,12.791138
2022-10-07T07:56:38.005Z,12.781067
2022-10-07T07:57:47.039Z,12.781067
2022-10-07T07:58:56.472Z,12.750854
2022-10-07T08:00:05.174Z,12.801208
2022-10-07T08:01:14.880Z,12.82135
2022-10-07T08:02:24.617Z,12.730713
2022-10-07T08:03:34.241Z,12.82135
2022-10-07T08:04:42.958Z,12.791138
2022-10-07T08:05:50.722Z,12.619934
2022-10-07T08:07:00.395Z,12.609863
2022-10-07T08:08:08.075Z,12.539368
2022-10-07T08:09:17.747Z,12.650146
2022-10-07T08:10:27.497Z,12.7005
2022-10-07T08:11:36.251Z,12.650146
2022-10-07T08:12:45.985Z,12.7005
2022-10-07T08:13:55.728Z,12.801208
2022-10-07T08:15:04.385Z,12.901917
2022-10-07T08:16:14.074Z,12.9422
2022-10-07T08:17:22.807Z,13.002625
2022-10-07T08:18:31.482Z,13.052979
2022-10-07T08:19:41.205Z,13.093262
2022-10-07T08:20:49.877Z,13.153687
2022-10-07T08:21:59.657Z,13.183899
2022-10-07T08:23:10.349Z,13.183899
2022-10-07T08:24:20.061Z,13.133545
2022-10-07T08:25:28.716Z,13.153687
2022-10-07T08:26:36.426Z,13.123474
2022-10-07T08:27:45.314Z,13.133545
2022-10-07T08:28:54.858Z,13.083191
2022-10-07T08:30:03.511Z,13.052979
2022-10-07T08:31:13.319Z,13.163757
2022-10-07T08:32:21.936Z,13.123474
2022-10-07T08:33:30.573Z,13.163757
2022-10-07T08:34:40.335Z,13.133545
2022-10-07T08:35:50.277Z,13.113403
2022-10-07T08:36:59.209Z,13.113403
2022-10-07T08:38:11.427Z,13.032837
2022-10-07T08:39:18.537Z,12.9422
2022-10-07T08:40:28.240Z,12.861633
2022-10-07T08:41:35.908Z,12.861633
2022-10-07T08:42:45.642Z,12.932129
2022-10-07T08:43:55.170Z,12.932129
2022-10-07T08:45:03.997Z,12.9422
2022-10-07T08:46:13.754Z,13.042908
2022-10-07T08:47:21.409Z,13.083191
2022-10-07T08:48:30.108Z,13.153687
2022-10-07T08:49:39.844Z,13.19397
2022-10-07T08:50:48.558Z,13.204041
2022-10-07T08:51:58.373Z,13.234253
2022-10-07T08:53:08.079Z,13.204041
2022-10-07T08:54:17.817Z,13.234253
2022-10-07T08:55:27.517Z,13.334961
2022-10-07T08:56:35.174Z,13.365173
2022-10-07T08:57:45.101Z,13.455811
2022-10-07T08:58:54.624Z,13.556519
2022-10-07T09:00:02.334Z,13.647156
2022-10-07T09:01:12.382Z,13.717651
2022-10-07T09:02:22.285Z,13.788147
2022-10-07T09:03:31.104Z,13.848572
2022-10-07T09:04:40.829Z,13.898926
2022-10-07T09:05:48.515Z,13.94928
2022-10-07T09:06:57.219Z,13.94928
2022-10-07T09:08:05.910Z,14.029846
2022-10-07T09:09:14.658Z,14.070129
2022-10-07T09:10:24.330Z,14.070129
2022-10-07T09:11:33.047Z,14.100342
2022-10-07T09:12:41.726Z,14.150696
2022-10-07T09:13:51.405Z,14.251404
2022-10-07T09:15:00.254Z,14.251404
2022-10-07T09:16:08.048Z,14.301758
2022-10-07T09:17:17.680Z,14.352112
2022-10-07T09:18:25.339Z,14.291687
2022-10-07T09:19:35.057Z,14.281616
2022-10-07T09:20:43.847Z,14.301758
2022-10-07T09:21:53.875Z,14.33197
2022-10-07T09:23:04.578Z,14.372253
2022-10-07T09:24:14.273Z,14.372253
2022-10-07T09:25:22.980Z,14.402466
2022-10-07T09:26:32.708Z,14.261475
2022-10-07T09:27:41.453Z,14.20105
2022-10-07T09:28:51.227Z,14.100342
2022-10-07T09:29:59.997Z,14.110413
2022-10-07T09:31:07.800Z,14.049988
2022-10-07T09:32:17.460Z,14.039917
2022-10-07T09:33:25.144Z,13.969421
2022-10-07T09:34:33.857Z,14.029846
2022-10-07T09:35:43.614Z,14.0802
2022-10-07T09:36:54.274Z,14.140625
2022-10-07T09:38:02.993Z,14.150696
2022-10-07T09:39:11.694Z,14.140625
2022-10-07T09:40:20.402Z,14.170837
2022-10-07T09:41:31.211Z,14.221191
2022-10-07T09:42:39.802Z,14.221191
2022-10-07T09:43:48.530Z,14.301758
2022-10-07T09:44:58.313Z,14.402466
2022-10-07T09:46:06.073Z,14.483032
2022-10-07T09:47:15.690Z,14.533386
2022-10-07T09:48:24.415Z,14.624023
2022-10-07T09:49:33.166Z,14.70459
2022-10-07T09:50:42.863Z,14.664307
2022-10-07T09:51:50.581Z,14.664307
2022-10-07T09:52:59.371Z,14.593811
2022-10-07T09:54:08.095Z,14.593811
2022-10-07T09:55:15.819Z,14.603882
2022-10-07T09:56:24.527Z,14.503174
2022-10-07T09:57:33.221Z,14.432678
2022-10-07T09:58:40.890Z,14.432678
2022-10-07T09:59:50.608Z,14.362183
2022-10-07T10:00:59.406Z,14.412537
2022-10-07T10:02:08.177Z,14.45282
2022-10-07T10:03:17.906Z,14.442749
2022-10-07T10:04:27.545Z,14.372253
2022-10-07T10:05:37.272Z,14.352112
2022-10-07T10:06:46.990Z,14.412537
2022-10-07T10:07:56.723Z,14.472961
2022-10-07T10:09:06.417Z,14.442749
2022-10-07T10:10:16.075Z,14.513245
2022-10-07T10:11:25.799Z,14.634094
2022-10-07T10:12:36.217Z,14.694519
2022-10-07T10:13:45.171Z,14.765015
2022-10-07T10:14:54.888Z,14.845581
2022-10-07T10:16:04.742Z,14.875793
2022-10-07T10:17:14.367Z,14.966431
2022-10-07T10:18:24.212Z,15.026855
2022-10-07T10:19:34.930Z,15.067139
2022-10-07T10:20:40.632Z,15.167847
2022-10-07T10:21:50.310Z,15.097351
2022-10-07T10:22:59.014Z,15.057068
2022-10-07T10:24:08.764Z,15.167847
2022-10-07T10:25:17.553Z,15.278625
2022-10-07T10:26:29.503Z,15.419617
2022-10-07T10:27:35.878Z,15.490112
2022-10-07T10:28:44.654Z,15.490112
2022-10-07T10:29:54.331Z,15.510254
2022-10-07T10:31:05.063Z,15.58075
2022-10-07T10:32:13.687Z,15.731812
2022-10-07T10:33:23.381Z,15.862732
2022-10-07T10:34:33.067Z,16.013794
2022-10-07T10:35:41.773Z,16.164856
2022-10-07T10:36:50.536Z,16.34613
2022-10-07T10:37:57.215Z,16.376343
2022-10-07T10:39:06.896Z,16.285706
2022-10-07T10:40:16.584Z,16.164856
2022-10-07T10:41:25.310Z,16.09436
2022-10-07T10:42:35.028Z,16.124573
2022-10-07T10:43:43.714Z,16.225281
2022-10-07T10:44:53.406Z,16.376343
2022-10-07T10:46:03.147Z,16.5979
2022-10-07T10:47:10.793Z,16.738892
2022-10-07T10:48:20.486Z,16.8396
2022-10-07T10:49:28.174Z,16.789246
2022-10-07T10:50:36.867Z,16.738892
2022-10-07T10:51:46.579Z,16.859741
2022-10-07T10:52:55.341Z,16.97052
2022-10-07T10:54:05.062Z,17.09137
2022-10-07T10:55:13.839Z,17.262573
2022-10-07T10:56:21.551Z,17.34314
2022-10-07T10:57:31.245Z,17.292786
2022-10-07T10:58:39.947Z,17.363281
2022-10-07T10:59:48.653Z,17.494202
2022-10-07T11:00:59.771Z,17.786255
2022-10-07T11:02:06.334Z,18.048096
2022-10-07T11:03:16.008Z,18.440857
2022-10-07T11:04:25.710Z,18.712769
2022-10-07T11:05:34.386Z,18.924255
2022-10-07T11:06:43.112Z,19.256592
2022-10-07T11:07:50.783Z,19.669495
2022-10-07T11:09:00.530Z,20.102539
2022-10-07T11:10:09.245Z,20.434875
2022-10-07T11:11:17.973Z,20.666504
2022-10-07T11:12:27.670Z,20.948486
2022-10-07T11:13:36.405Z,21.24054
2022-10-07T11:14:46.095Z,21.482239
2022-10-07T11:15:56.830Z,21.764221
2022-10-07T11:17:05.494Z,21.885071
2022-10-07T11:18:15.168Z,21.572876
2022-10-07T11:19:24.861Z,21.482239
2022-10-07T11:20:32.536Z,21.170044
2022-10-07T11:21:41.315Z,20.837708
2022-10-07T11:22:50.243Z,20.837708
2022-10-07T11:23:57.720Z,20.837708
2022-10-07T11:25:07.436Z,20.968628
2022-10-07T11:26:17.116Z,21.149902
2022-10-07T11:27:27.006Z,21.170044
2022-10-07T11:28:36.740Z,21.11969
2022-10-07T11:29:45.377Z,21.180115
2022-10-07T11:30:55.096Z,21.351318
2022-10-07T11:32:04.783Z,21.421814
2022-10-07T11:33:14.503Z,21.431885
2022-10-07T11:34:24.208Z,21.572876
2022-10-07T11:35:33.003Z,21.603088
2022-10-07T11:36:41.717Z,21.462097
2022-10-07T11:37:51.409Z,21.24054
2022-10-07T11:39:00.118Z,20.928345
2022-10-07T11:40:09.788Z,20.968628
2022-10-07T11:41:17.499Z,20.968628
2022-10-07T11:42:27.166Z,20.918274
2022-10-07T11:43:36.833Z,21.180115
2022-10-07T11:44:45.552Z,21.351318
2022-10-07T11:45:55.244Z,21.552734
2022-10-07T11:47:06.193Z,21.522522
2022-10-07T11:48:13.906Z,21.431885
2022-10-07T11:49:23.864Z,21.723938
2022-10-07T11:50:32.823Z,22.167053
2022-10-07T11:51:40.954Z,22.539673
2022-10-07T11:52:50.906Z,22.962646
2022-10-07T11:53:59.393Z,23.335266
2022-10-07T11:55:08.300Z,23.587036
2022-10-07T11:56:17.401Z,23.647461
2022-10-07T11:57:26.610Z,23.00293
2022-10-07T11:58:36.330Z,22.50946
2022-10-07T11:59:45.333Z,22.136841
2022-10-07T12:00:53.296Z,21.945496
2022-10-07T12:02:03.768Z,21.955566
2022-10-07T12:03:13.491Z,21.955566
2022-10-07T12:04:22.486Z,22.015991
2022-10-07T12:05:32.421Z,22.428894
2022-10-07T12:06:40.298Z,22.932434
2022-10-07T12:07:50.093Z,22.801514
2022-10-07T12:08:58.941Z,22.297974
2022-10-07T12:10:07.755Z,21.673584
2022-10-07T12:11:17.615Z,22.056274
2022-10-07T12:12:25.446Z,22.287903
2022-10-07T12:13:34.257Z,22.569885
2022-10-07T12:14:43.990Z,22.348328
2022-10-07T12:15:51.817Z,22.600098
2022-10-07T12:17:01.625Z,23.234558
2022-10-07T12:18:11.549Z,23.234558
2022-10-07T12:19:23.439Z,23.214417
2022-10-07T12:20:30.243Z,23.687744
2022-10-07T12:21:38.989Z,23.687744
2022-10-07T12:22:47.968Z,23.456116
2022-10-07T12:23:57.392Z,23.657532
2022-10-07T12:25:09.065Z,23.778381
2022-10-07T12:26:15.454Z,23.989868
2022-10-07T12:27:24.206Z,24.402771
2022-10-07T12:28:32.051Z,24.684753
2022-10-07T12:29:41.904Z,25.057373
2022-10-07T12:30:50.855Z,25.137939
2022-10-07T12:32:00.583Z,24.926453
2022-10-07T12:33:11.338Z,25.027161
2022-10-07T12:34:19.007Z,24.916382
2022-10-07T12:35:28.818Z,25.248718
2022-10-07T12:36:37.630Z,25.329285
2022-10-07T12:37:47.397Z,25.027161
2022-10-07T12:38:56.079Z,25.409851
2022-10-07T12:40:04.869Z,26.185303
2022-10-07T12:41:14.816Z,26.628418
2022-10-07T12:42:22.878Z,26.64856
2022-10-07T12:43:32.633Z,26.618347
2022-10-07T12:44:42.388Z,26.477356
2022-10-07T12:45:50.192Z,26.094666
2022-10-07T12:46:59.897Z,25.842896
2022-10-07T12:48:09.601Z,25.933533
2022-10-07T12:49:17.351Z,25.963745
2022-10-07T12:50:26.029Z,26.054382
2022-10-07T12:51:34.777Z,25.319214
2022-10-07T12:52:43.992Z,24.694824
2022-10-07T12:53:53.528Z,24.302063
2022-10-07T12:55:01.268Z,23.858948
2022-10-07T12:56:10.915Z,23.2547
2022-10-07T12:57:19.642Z,22.912292
2022-10-07T12:58:28.336Z,23.405762
2022-10-07T12:59:38.088Z,23.929443
2022-10-07T13:00:45.903Z,24.211426
2022-10-07T13:01:54.613Z,24.483337
2022-10-07T13:03:04.142Z,24.422913
2022-10-07T13:04:11.849Z,24.161072
2022-10-07T13:05:21.599Z,24.402771
2022-10-07T13:06:31.309Z,24.795532
2022-10-07T13:07:39.992Z,25.178223
2022-10-07T13:08:48.682Z,25.530701
2022-10-07T13:09:56.368Z,25.913391
2022-10-07T13:11:05.090Z,25.883179